地図

経路データ

SID SEASON NUMBER BASIN SUBBASIN NAME ISO_TIME NATURE LAT LON WMO_WIND WMO_PRES WMO_AGENCY TRACK_TYPE DIST2LAND LANDFALL IFLAG USA_AGENCY USA_ATCF_ID USA_LAT USA_LON USA_RECORD USA_STATUS USA_WIND USA_PRES USA_SSHS USA_R34_NE USA_R34_SE USA_R34_SW USA_R34_NW USA_R50_NE USA_R50_SE USA_R50_SW USA_R50_NW USA_R64_NE USA_R64_SE USA_R64_SW USA_R64_NW USA_POCI USA_ROCI USA_RMW USA_EYE TOKYO_LAT TOKYO_LON TOKYO_GRADE TOKYO_WIND TOKYO_PRES TOKYO_R50_DIR TOKYO_R50_LONG TOKYO_R50_SHORT TOKYO_R30_DIR TOKYO_R30_LONG TOKYO_R30_SHORT TOKYO_LAND CMA_LAT CMA_LON CMA_CAT CMA_WIND CMA_PRES HKO_LAT HKO_LON HKO_CAT HKO_WIND HKO_PRES NEWDELHI_LAT NEWDELHI_LON NEWDELHI_GRADE NEWDELHI_WIND NEWDELHI_PRES NEWDELHI_CI NEWDELHI_DP NEWDELHI_POCI REUNION_LAT REUNION_LON REUNION_TYPE REUNION_WIND REUNION_PRES REUNION_TNUM REUNION_CI REUNION_RMW REUNION_R34_NE REUNION_R34_SE REUNION_R34_SW REUNION_R34_NW REUNION_R50_NE REUNION_R50_SE REUNION_R50_SW REUNION_R50_NW REUNION_R64_NE REUNION_R64_SE REUNION_R64_SW REUNION_R64_NW BOM_LAT BOM_LON BOM_TYPE BOM_WIND BOM_PRES BOM_TNUM BOM_CI BOM_RMW BOM_R34_NE BOM_R34_SE BOM_R34_SW BOM_R34_NW BOM_R50_NE BOM_R50_SE BOM_R50_SW BOM_R50_NW BOM_R64_NE BOM_R64_SE BOM_R64_SW BOM_R64_NW BOM_ROCI BOM_POCI BOM_EYE BOM_POS_METHOD BOM_PRES_METHOD NADI_LAT NADI_LON NADI_CAT NADI_WIND NADI_PRES WELLINGTON_LAT WELLINGTON_LON WELLINGTON_WIND WELLINGTON_PRES DS824_LAT DS824_LON DS824_STAGE DS824_WIND DS824_PRES TD9636_LAT TD9636_LON TD9636_STAGE TD9636_WIND TD9636_PRES TD9635_LAT TD9635_LON TD9635_WIND TD9635_PRES TD9635_ROCI NEUMANN_LAT NEUMANN_LON NEUMANN_CLASS NEUMANN_WIND NEUMANN_PRES MLC_LAT MLC_LON MLC_CLASS MLC_WIND MLC_PRES USA_GUST BOM_GUST BOM_GUST_PER REUNION_GUST REUNION_GUST_PER USA_SEAHGT USA_SEARAD_NE USA_SEARAD_SE USA_SEARAD_SW USA_SEARAD_NW STORM_SPEED STORM_DIR
1978262N13344 1978 93 NA NA NOT_NAMED 1978-09-18 12:00:00 TS 13.0000 -16.0000 20 hurdat_atl main 0 0 O_____________ hurdat_atl AL171978 13.0000 -16.0000 TD 20 -1 14 263
1978262N13344 1978 93 NA NA NOT_NAMED 1978-09-18 15:00:00 TS 12.9128 -16.6975 main 0 0 P_____________ AL171978 12.9128 -16.6975 TD 20 -1 14 262
1978262N13344 1978 93 NA NA NOT_NAMED 1978-09-18 18:00:00 TS 12.8000 -17.4000 20 hurdat_atl main 66 66 O_____________ hurdat_atl AL171978 12.8000 -17.4000 TD 20 -1 14 259
1978262N13344 1978 93 NA NA NOT_NAMED 1978-09-18 21:00:00 TS 12.6499 -18.1075 main 141 141 P_____________ AL171978 12.6499 -18.1075 TD 22 -1 14 258
1978262N13344 1978 93 NA NA NOT_NAMED 1978-09-19 00:00:00 TS 12.5000 -18.8000 25 hurdat_atl main 217 217 O_____________ hurdat_atl AL171978 12.5000 -18.8000 TD 25 -1 13 259
1978262N13344 1978 93 NA NA NOT_NAMED 1978-09-19 03:00:00 TS 12.3997 -19.4498 main 282 282 P_____________ AL171978 12.3997 -19.4498 TD 25 -1 13 261
1978262N13344 1978 93 NA NA NOT_NAMED 1978-09-19 06:00:00 TS 12.3000 -20.1000 25 hurdat_atl main 358 358 O_____________ hurdat_atl AL171978 12.3000 -20.1000 TD 25 -1 13 259
1978262N13344 1978 93 NA NA NOT_NAMED 1978-09-19 09:00:00 TS 12.1349 -20.7927 main 436 436 P_____________ AL171978 12.1349 -20.7927 TD 27 -1 14 258
1978262N13344 1978 93 NA NA NOT_NAMED 1978-09-19 12:00:00 TS 12.0000 -21.5000 30 hurdat_atl main 513 513 O_____________ hurdat_atl AL171978 12.0000 -21.5000 TD 30 -1 14 263
1978262N13344 1978 93 NA NA NOT_NAMED 1978-09-19 15:00:00 TS 11.9773 -22.1998 main 588 588 P_____________ AL171978 11.9773 -22.1998 TD 30 -1 14 270
1978262N13344 1978 93 NA NA NOT_NAMED 1978-09-19 18:00:00 TS 12.0000 -22.9000 30 hurdat_atl main 658 658 O_____________ hurdat_atl AL171978 12.0000 -22.9000 TD 30 -1 14 271
1978262N13344 1978 93 NA NA NOT_NAMED 1978-09-19 21:00:00 TS 11.9998 -23.6000 main 726 726 P_____________ AL171978 11.9998 -23.6000 TD 30 -1 14 270
1978262N13344 1978 93 NA NA NOT_NAMED 1978-09-20 00:00:00 TS 12.0000 -24.3000 30 hurdat_atl main 795 795 O_____________ hurdat_atl AL171978 12.0000 -24.3000 TD 30 -1 14 270
1978262N13344 1978 93 NA NA NOT_NAMED 1978-09-20 03:00:00 TS 11.9999 -25.0075 main 866 866 P_____________ AL171978 11.9999 -25.0075 TD 30 -1 14 270
1978262N13344 1978 93 NA NA NOT_NAMED 1978-09-20 06:00:00 TS 12.0000 -25.7000 30 hurdat_atl main 937 937 O_____________ hurdat_atl AL171978 12.0000 -25.7000 TD 30 -1 13 269
1978262N13344 1978 93 NA NA NOT_NAMED 1978-09-20 09:00:00 TS 11.9848 -26.3576 main 1009 1009 P_____________ AL171978 11.9848 -26.3576 TD 30 -1 13 270
1978262N13344 1978 93 NA NA NOT_NAMED 1978-09-20 12:00:00 TS 12.0000 -27.0000 30 hurdat_atl main 1071 1071 O_____________ hurdat_atl AL171978 12.0000 -27.0000 TD 30 -1 13 274
1978262N13344 1978 93 NA NA NOT_NAMED 1978-09-20 15:00:00 TS 12.0774 -27.6575 main 1141 1141 P_____________ AL171978 12.0774 -27.6575 TD 30 -1 13 279
1978262N13344 1978 93 NA NA NOT_NAMED 1978-09-20 18:00:00 TS 12.2000 -28.3000 30 hurdat_atl main 1201 1201 O_____________ hurdat_atl AL171978 12.2000 -28.3000 TD 30 -1 13 283
1978262N13344 1978 93 NA NA NOT_NAMED 1978-09-20 21:00:00 TS 12.3498 -28.9075 main 1262 1259 P_____________ AL171978 12.3498 -28.9075 TD 30 -1 12 284
1978262N13344 1978 93 NA NA NOT_NAMED 1978-09-21 00:00:00 TS 12.5000 -29.5000 30 hurdat_atl main 1320 1320 O_____________ hurdat_atl AL171978 12.5000 -29.5000 TD 30 -1 12 282
1978262N13344 1978 93 NA NA NOT_NAMED 1978-09-21 03:00:00 TS 12.5998 -30.0927 main 1382 1382 P_____________ AL171978 12.5998 -30.0927 TD 30 -1 12 280
1978262N13344 1978 93 NA NA NOT_NAMED 1978-09-21 06:00:00 TS 12.7000 -30.7000 30 hurdat_atl main 1444 1444 O_____________ hurdat_atl AL171978 12.7000 -30.7000 TD 30 -1 12 281
1978262N13344 1978 93 NA NA NOT_NAMED 1978-09-21 09:00:00 TS 12.8272 -31.3127 main 1506 1506 P_____________ AL171978 12.8272 -31.3127 TD 30 -1 13 283
1978262N13344 1978 93 NA NA NOT_NAMED 1978-09-21 12:00:00 TS 13.0000 -32.0000 30 hurdat_atl main 1577 1577 O_____________ hurdat_atl AL171978 13.0000 -32.0000 TD 30 -1 15 286
1978262N13344 1978 93 NA NA NOT_NAMED 1978-09-21 15:00:00 TS 13.2349 -32.8125 main 1660 1660 P_____________ AL171978 13.2349 -32.8125 TD 30 -1 17 287
1978262N13344 1978 93 NA NA NOT_NAMED 1978-09-21 18:00:00 TS 13.5000 -33.7000 30 hurdat_atl main 1752 1752 O_____________ hurdat_atl AL171978 13.5000 -33.7000 TD 30 -1 18 287
1978262N13344 1978 93 NA NA NOT_NAMED 1978-09-21 21:00:00 TS 13.7498 -34.5927 main 1847 1846 P_____________ AL171978 13.7498 -34.5927 TD 30 -1 18 286
1978262N13344 1978 93 NA NA NOT_NAMED 1978-09-22 00:00:00 TS 14.0000 -35.5000 30 hurdat_atl main 1941 1941 O_____________ hurdat_atl AL171978 14.0000 -35.5000 TD 30 -1 18 286
1978262N13344 1978 93 NA NA NOT_NAMED 1978-09-22 03:00:00 TS 14.2497 -36.4077 main 1952 1922 P_____________ AL171978 14.2497 -36.4077 TD 30 -1 18 286
1978262N13344 1978 93 NA NA NOT_NAMED 1978-09-22 06:00:00 TS 14.5000 -37.3000 30 hurdat_atl main 1913 1848 O_____________ hurdat_atl AL171978 14.5000 -37.3000 TD 30 -1 18 286
1978262N13344 1978 93 NA NA NOT_NAMED 1978-09-22 09:00:00 TS 14.7577 -38.2249 main 1855 1803 P_____________ AL171978 14.7577 -38.2249 TD 30 -1 17 287
1978262N13344 1978 93 NA NA NOT_NAMED 1978-09-22 12:00:00 TS 15.0000 -39.0000 30 hurdat_atl main 1803 1777 O_____________ hurdat_atl AL171978 15.0000 -39.0000 TD 30 -1 13 290
1978262N13344 1978 93 NA NA NOT_NAMED 1978-09-22 15:00:00 TS 15.2070 -39.4753 main 1777 1769 P_____________ AL171978 15.2070 -39.4753 TD 30 -1 9 297
1978262N13344 1978 93 NA NA NOT_NAMED 1978-09-22 18:00:00 TS 15.4000 -39.8000 30 hurdat_atl main 1769 1753 O_____________ hurdat_atl AL171978 15.4000 -39.8000 TD 30 -1 8 301
1978262N13344 1978 93 NA NA NOT_NAMED 1978-09-22 21:00:00 TS 15.5999 -40.1576 main 1754 1746 P_____________ AL171978 15.5999 -40.1576 TD 30 -1 8 301
1978262N13344 1978 93 NA NA NOT_NAMED 1978-09-23 00:00:00 TS 15.8000 -40.5000 30 hurdat_atl main 1747 1740 O_____________ hurdat_atl AL171978 15.8000 -40.5000 TD 30 -1 8 302
1978262N13344 1978 93 NA NA NOT_NAMED 1978-09-23 03:00:00 TS 16.0074 -40.8425 main 1742 1729 P_____________ AL171978 16.0074 -40.8425 TD 30 -1 8 301
1978262N13344 1978 93 NA NA NOT_NAMED 1978-09-23 06:00:00 TS 16.2000 -41.2000 30 hurdat_atl main 1730 1718 O_____________ hurdat_atl AL171978 16.2000 -41.2000 TD 30 -1 8 297
1978262N13344 1978 93 NA NA NOT_NAMED 1978-09-23 09:00:00 TS 16.3725 -41.6000 main 1720 1702 P_____________ AL171978 16.3725 -41.6000 TD 30 -1 8 291
1978262N13344 1978 93 NA NA NOT_NAMED 1978-09-23 12:00:00 TS 16.5000 -42.0000 30 hurdat_atl main 1702 1689 O_____________ hurdat_atl AL171978 16.5000 -42.0000 TD 30 -1 7 285
1978262N13344 1978 93 NA NA NOT_NAMED 1978-09-23 15:00:00 TS 16.5649 -42.3501 main 1685 1667 P_____________ AL171978 16.5649 -42.3501 TD 30 -1 7 278
1978262N13344 1978 93 NA NA NOT_NAMED 1978-09-23 18:00:00 TS 16.6000 -42.7000 30 hurdat_atl main 1667 1643 O_____________ hurdat_atl AL171978 16.6000 -42.7000 TD 30 -1 7 277
1978262N13344 1978 93 NA NA NOT_NAMED 1978-09-23 21:00:00 TS 16.6500 -43.1000 main 1652 1625 P_____________ AL171978 16.6500 -43.1000 TD 30 -1 8 277
1978262N13344 1978 93 NA NA NOT_NAMED 1978-09-24 00:00:00 TS 16.7000 -43.5000 30 hurdat_atl main 1625 1606 O_____________ hurdat_atl AL171978 16.7000 -43.5000 TD 30 -1 7 277
1978262N13344 1978 93 NA NA NOT_NAMED 1978-09-24 03:00:00 TS 16.7424 -43.8501 main 1599 1589 P_____________ AL171978 16.7424 -43.8501 TD 30 -1 7 278
1978262N13344 1978 93 NA NA NOT_NAMED 1978-09-24 06:00:00 TS 16.8000 -44.2000 30 hurdat_atl main 1589 1573 O_____________ hurdat_atl AL171978 16.8000 -44.2000 TD 30 -1 7 282
1978262N13344 1978 93 NA NA NOT_NAMED 1978-09-24 09:00:00 TS 16.8924 -44.5775 main 1573 1559 P_____________ AL171978 16.8924 -44.5775 TD 30 -1 8 285
1978262N13344 1978 93 NA NA NOT_NAMED 1978-09-24 12:00:00 TS 17.0000 -45.0000 30 hurdat_atl main 1559 1540 O_____________ hurdat_atl AL171978 17.0000 -45.0000 TD 30 -1 9 283
1978262N13344 1978 93 NA NA NOT_NAMED 1978-09-24 15:00:00 TS 17.0925 -45.4851 main 1540 1524 P_____________ AL171978 17.0925 -45.4851 TD 30 -1 10 282
1978262N13344 1978 93 NA NA NOT_NAMED 1978-09-24 18:00:00 TS 17.2000 -46.0000 30 hurdat_atl main 1524 1508 O_____________ hurdat_atl AL171978 17.2000 -46.0000 TD 30 -1 10 284
1978262N13344 1978 93 NA NA NOT_NAMED 1978-09-24 21:00:00 TS 17.3424 -46.5000 main 1508 1504 P_____________ AL171978 17.3424 -46.5000 TD 30 -1 10 287
1978262N13344 1978 93 NA NA NOT_NAMED 1978-09-25 00:00:00 TS 17.5000 -47.0000 30 hurdat_atl main 1505 1493 O_____________ hurdat_atl AL171978 17.5000 -47.0000 TD 30 -1 10 288
1978262N13344 1978 93 NA NA NOT_NAMED 1978-09-25 03:00:00 TS 17.6574 -47.5000 main 1503 1491 P_____________ AL171978 17.6574 -47.5000 TD 30 -1 10 287
1978262N13344 1978 93 NA NA NOT_NAMED 1978-09-25 06:00:00 TS 17.8000 -48.0000 30 hurdat_atl main 1493 1478 O_____________ hurdat_atl AL171978 17.8000 -48.0000 TD 30 -1 10 283
1978262N13344 1978 93 NA NA NOT_NAMED 1978-09-25 09:00:00 TS 17.8850 -48.5153 main 1479 1466 P_____________ AL171978 17.8850 -48.5153 TD 30 -1 10 282
1978262N13344 1978 93 NA NA NOT_NAMED 1978-09-25 12:00:00 TS 18.0000 -49.0000 30 hurdat_atl main 1467 1463 O_____________ hurdat_atl AL171978 18.0000 -49.0000 TD 30 -1 9 292
1978262N13344 1978 93 NA NA NOT_NAMED 1978-09-25 15:00:00 TS 18.2274 -49.4225 main 1472 1472 P_____________ AL171978 18.2274 -49.4225 TD 30 -1 9 303
1978262N13344 1978 93 NA NA NOT_NAMED 1978-09-25 18:00:00 TS 18.5000 -49.8000 30 hurdat_atl main 1487 1474 O_____________ hurdat_atl AL171978 18.5000 -49.8000 TD 30 -1 9 307
1978262N13344 1978 93 NA NA NOT_NAMED 1978-09-25 21:00:00 TS 18.7499 -50.1576 main 1466 1461 P_____________ AL171978 18.7499 -50.1576 TD 30 -1 8 307
1978262N13344 1978 93 NA NA NOT_NAMED 1978-09-26 00:00:00 TS 19.0000 -50.5000 30 hurdat_atl main 1461 1450 O_____________ hurdat_atl AL171978 19.0000 -50.5000 TD 30 -1 8 308
1978262N13344 1978 93 NA NA NOT_NAMED 1978-09-26 03:00:00 TS 19.2499 -50.8426 main 1450 1440 P_____________ AL171978 19.2499 -50.8426 TD 30 -1 8 307
1978262N13344 1978 93 NA NA NOT_NAMED 1978-09-26 06:00:00 TS 19.5000 -51.2000 30 hurdat_atl main 1440 1424 O_____________ hurdat_atl AL171978 19.5000 -51.2000 TD 30 -1 9 304
1978262N13344 1978 93 NA NA NOT_NAMED 1978-09-26 09:00:00 TS 19.7275 -51.5928 main 1424 1417 P_____________ AL171978 19.7275 -51.5928 TD 30 -1 9 304
1978262N13344 1978 93 NA NA NOT_NAMED 1978-09-26 12:00:00 TS 20.0000 -52.0000 30 hurdat_atl main 1418 1400 O_____________ hurdat_atl AL171978 20.0000 -52.0000 TD 30 -1 10 311
1978262N13344 1978 93 NA NA NOT_NAMED 1978-09-26 15:00:00 TS 20.3850 -52.4074 main 1401 1366 P_____________ AL171978 20.3850 -52.4074 TD 30 -1 11 317
1978262N13344 1978 93 NA NA NOT_NAMED 1978-09-26 18:00:00 TS 20.8000 -52.8000 30 hurdat_atl main 1366 1342 O_____________ hurdat_atl AL171978 20.8000 -52.8000 TD 30 -1 10 318
1978262N13344 1978 93 NA NA NOT_NAMED 1978-09-26 21:00:00 TS 21.1574 -53.1578 main 1334 1310 P_____________ AL171978 21.1574 -53.1578 TD 30 -1 10 317
1978262N13344 1978 93 NA NA NOT_NAMED 1978-09-27 00:00:00 TS 21.5000 -53.5000 30 hurdat_atl main 1310 1288 O_____________ hurdat_atl AL171978 21.5000 -53.5000 TD 30 -1 9 317
1978262N13344 1978 93 NA NA NOT_NAMED 1978-09-27 03:00:00 TS 21.8424 -53.8428 main 1288 1261 P_____________ AL171978 21.8424 -53.8428 TD 30 -1 10 317
1978262N13344 1978 93 NA NA NOT_NAMED 1978-09-27 06:00:00 TS 22.2000 -54.2000 30 hurdat_atl main 1261 1233 O_____________ hurdat_atl AL171978 22.2000 -54.2000 TD 30 -1 10 316
1978262N13344 1978 93 NA NA NOT_NAMED 1978-09-27 09:00:00 TS 22.5926 -54.6149 main 1237 1215 P_____________ AL171978 22.5926 -54.6149 TD 30 -1 11 317
1978262N13344 1978 93 NA NA NOT_NAMED 1978-09-27 12:00:00 TS 23.0000 -55.0000 30 hurdat_atl main 1215 1206 O_____________ hurdat_atl AL171978 23.0000 -55.0000 TD 30 -1 10 323
1978262N13344 1978 93 NA NA NOT_NAMED 1978-09-27 15:00:00 TS 23.4073 -55.2728 main 1206 1202 P_____________ AL171978 23.4073 -55.2728 TD 27 -1 9 330
1978262N13344 1978 93 NA NA NOT_NAMED 1978-09-27 18:00:00 TS 23.8000 -55.5000 25 hurdat_atl main 1208 1201 O_____________ hurdat_atl AL171978 23.8000 -55.5000 TD 25 -1 9 330
1978262N13344 1978 93 NA NA NOT_NAMED 1978-09-27 21:00:00 TS 24.1575 -55.7502 main 1203 1198 P_____________ AL171978 24.1575 -55.7502 TD 25 -1 8 327
1978262N13344 1978 93 NA NA NOT_NAMED 1978-09-28 00:00:00 TS 24.5000 -56.0000 25 hurdat_atl main 1204 1199 O_____________ hurdat_atl AL171978 24.5000 -56.0000 TD 25 -1 8 326
1978262N13344 1978 93 NA NA NOT_NAMED 1978-09-28 03:00:00 TS 24.8425 -56.2502 main 1197 1197 P_____________ AL171978 24.8425 -56.2502 TD 25 -1 8 327
1978262N13344 1978 93 NA NA NOT_NAMED 1978-09-28 06:00:00 TS 25.2000 -56.5000 25 hurdat_atl main 1207 1204 O_____________ hurdat_atl AL171978 25.2000 -56.5000 TD 25 -1 8 324
1978262N13344 1978 93 NA NA NOT_NAMED 1978-09-28 09:00:00 TS 25.5176 -56.7874 main 1204 1204 P_____________ AL171978 25.5176 -56.7874 TD 25 -1 9 331
1978262N13344 1978 93 NA NA NOT_NAMED 1978-09-28 12:00:00 TS 26.0000 -57.0000 25 hurdat_atl main 1226 1226 O_____________ hurdat_atl AL171978 26.0000 -57.0000 TD 25 -1 13 350
1978262N13344 1978 93 NA NA NOT_NAMED 1978-09-28 15:00:00 TS 26.8325 -57.0380 main 1287 1287 P_____________ AL171978 26.8325 -57.0380 TD 25 -1 18 1
1978262N13344 1978 93 NA NA NOT_NAMED 1978-09-28 18:00:00 TS 27.8000 -57.0000 25 hurdat_atl main 1368 1368 O_____________ hurdat_atl AL171978 27.8000 -57.0000 TD 25 -1 18 1
1978262N13344 1978 93 NA NA NOT_NAMED 1978-09-28 21:00:00 TS 28.6575 -57.0000 main 1445 1445 P_____________ AL171978 28.6575 -57.0000 TD 22 -1 17 0
1978262N13344 1978 93 NA NA NOT_NAMED 1978-09-29 00:00:00 TS 29.5000 -57.0000 20 hurdat_atl main 1515 1515 O_____________ hurdat_atl AL171978 29.5000 -57.0000 TD 20 -1 17 1
1978262N13344 1978 93 NA NA NOT_NAMED 1978-09-29 03:00:00 TS 30.3425 -57.0000 main 1587 1551 P_____________ AL171978 30.3425 -57.0000 TD 20 -1 17 0
1978262N13344 1978 93 NA NA NOT_NAMED 1978-09-29 06:00:00 TS 31.2000 -57.0000 20 hurdat_atl main 1551 1471 O_____________ hurdat_atl AL171978 31.2000 -57.0000 TD 20 -1 18 1
1978262N13344 1978 93 NA NA NOT_NAMED 1978-09-29 09:00:00 TS 32.0900 -57.0000 main 1461 1382 P_____________ AL171978 32.0900 -57.0000 TD 20 -1 18 1
1978262N13344 1978 93 NA NA NOT_NAMED 1978-09-29 12:00:00 TS 33.0000 -57.0000 20 hurdat_atl main 1372 O_____________ hurdat_atl AL171978 33.0000 -57.0000 TD 20 -1 18 0

IBTrACS Databaseについて

本データベースは、米国NOAAが公開する1842年以降の世界の熱帯低気圧のベストトラックデータアーカイブInternational Best Track Archive for Climate Stewardship (IBTrACS)を、ウェブで閲覧しやすい形式に変換したものです。

最終更新日:2021-10-08